KEGEKTEX

Guest
Details From KEGE - EAGLE CO RGNL
To KTEX - Telluride Rgnl
Flight Number -
Tags generated
Created
Modified
Stats Distance 112 nm / 207 km
Max Altitude 12,300 ft / 3,749 m
Waypoints 3
Social Downloads 10
Likes 0
Share VATSIM

Download

Looking for another format? Having issues loading an existing format? Contact us
Advertisement - Login to hide

Notes

Basic altitude profile: - Ascent Rate: 2500ft/min - Ascent Speed: 250kts - Cruise Altitude: 35000ft - Cruise Speed: 420kts - Descent Rate: 1500ft/min - Descent Speed: 250kts Options: - Use NATs: yes - Use PACOTS: yes - Use low airways: yes - Use high airways: yes

Route

KEGE PITMN KTEX

ID Type Via Altitude Latitude Longitude Leg Dist Tot Dist Heading (true) Name
O KEGE APT - 0 ft / 0 m 39.64257˚ -106.91770˚ - 0 nm - EAGLE CO RGNL
PITMN FIX - 12,300 ft / 3,749 m 39.10074˚ -107.30861˚ 37 nm 37 nm 209° / 209° -
O KTEX APT - 0 ft / 0 m 37.95381˚ -107.90874˚ 74 nm 111 nm 202° / 202° Telluride Rgnl

Altitude Profile

Advertisement - Login to hide

KEGE

Details ICAO KEGE (EGE)
Name EAGLE CO RGNL
Region United States
Timezone America/Denver (UTC-6.0)
Stats Elevation 6,540 ft / 1,993 m (AMSL)
Location 39.642567° -106.917696°
Runways 1
Magnetic Variation 9.121° E

METAR

KEGE 201556Z 23003KT 10SM CLR 11/03 A3020 RMK AO2 SLP210 T01110028

Decode

TAF

TAF KEGE 201120Z 2012/2112 00000KT P6SM FEW250 FM202200 23010KT P6SM SCT090 BKN110 FM210100 20007KT P6SM SCT070 BKN110 AMD LTD TO CLD VIS AND WIND TIL 201300

Decode

Departure Runways

ID Width Length Bearing (true) Bearing (mag) Surface Threshold Offset Overrun Length
07 150 ft / 46 m 7,981 ft / 2,433 m 81.90° 72.78° Asphalt 0 ft / 0 m 0 ft / 0 m
25 150 ft / 46 m 7,981 ft / 2,433 m 261.92° 252.80° Asphalt 0 ft / 0 m 0 ft / 0 m

KTEX

Details ICAO KTEX (TEX)
Name Telluride Rgnl
Region United States
Timezone America/Denver (UTC-6.0)
Stats Elevation 9,078 ft / 2,767 m (AMSL)
Location 37.953812° -107.908742°
Runways 1
Magnetic Variation 9.377° E

METAR

KTEX 201615Z AUTO 15008KT 110V170 10SM CLR 14/M03 A3026 RMK AO2 T01421030

Decode

TAF

TAF KTEX 201120Z 2012/2112 13006KT P6SM FEW250 FM201600 16007KT P6SM FEW060 SCT200 FM202100 18012G23KT P6SM SCT070 BKN110 FM210400 15008KT P6SM SCT070 BKN110

Decode

Destination Runways

ID Width Length Bearing (true) Bearing (mag) Surface Threshold Offset Overrun Length
09 98 ft / 30 m 7,095 ft / 2,163 m 104.96° 95.58° Asphalt 200 ft / 61 m 400 ft / 122 m
27 98 ft / 30 m 7,095 ft / 2,163 m 284.98° 275.60° Asphalt 200 ft / 61 m 400 ft / 122 m

Approach Navaids

Runway Type Ident Frequency Range Bearing (true) Bearing (mag) Slope Elevation
09 Localiser ITEX 109.30 MHz 18 nm / 33 km 102.00° 92.62° - 9,078 ft / 2,767 m (AMSL)
09 DME ITEX 109.30 MHz 18 nm / 33 km - - - 9,078 ft / 2,767 m (AMSL)

Popular Alternatives